createdAt,value
2022-10-18T00:00:18.230Z,23.49
2022-10-18T00:02:44.999Z,23.22
2022-10-18T00:05:12.579Z,23.36
2022-10-18T00:07:39.389Z,23.43
2022-10-18T00:10:07.023Z,22.84
2022-10-18T00:12:37.595Z,23.26
2022-10-18T00:15:07.221Z,23.45
2022-10-18T00:17:37.951Z,23.21
2022-10-18T00:20:06.270Z,22.30
2022-10-18T00:22:38.353Z,23.39
2022-10-18T00:25:06.162Z,23.52
2022-10-18T00:27:33.811Z,23.22
2022-10-18T00:30:01.205Z,23.03
2022-10-18T00:32:28.410Z,23.46
2022-10-18T00:34:57.533Z,23.58
2022-10-18T00:37:24.037Z,23.34
2022-10-18T00:42:19.861Z,23.28
2022-10-18T00:44:46.366Z,21.96
2022-10-18T00:47:16.729Z,22.44
2022-10-18T00:49:50.240Z,23.14
2022-10-18T00:52:24.568Z,23.17
2022-10-18T00:54:52.337Z,23.32
2022-10-18T00:57:19.120Z,23.57
2022-10-18T00:59:47.466Z,23.35
2022-10-18T01:02:18.315Z,22.87
2022-10-18T01:04:46.740Z,22.44
2022-10-18T01:07:25.843Z,22.55
2022-10-18T01:09:55.350Z,23.43
2022-10-18T01:12:44.991Z,22.40
2022-10-18T01:15:21.572Z,22.78
2022-10-18T01:18:08.029Z,22.60
2022-10-18T01:20:56.294Z,23.33
2022-10-18T01:23:38.923Z,22.16
2022-10-18T01:26:08.582Z,22.22
2022-10-18T01:28:56.620Z,23.47
2022-10-18T01:31:39.362Z,22.54
2022-10-18T01:34:09.730Z,23.26
2022-10-18T01:36:41.032Z,23.05
2022-10-18T01:39:13.543Z,21.79
2022-10-18T01:41:43.642Z,23.23
2022-10-18T01:44:16.078Z,23.21
2022-10-18T01:46:44.193Z,22.91
2022-10-18T01:49:11.342Z,22.15
2022-10-18T01:51:38.083Z,23.42
2022-10-18T01:54:05.046Z,22.77
2022-10-18T01:56:58.660Z,23.29
2022-10-18T01:59:51.982Z,23.12
2022-10-18T02:02:40.675Z,23.09
2022-10-18T02:05:35.141Z,23.28
2022-10-18T02:08:22.941Z,22.47
2022-10-18T02:10:58.523Z,23.35
2022-10-18T02:13:29.639Z,23.01
2022-10-18T02:16:01.118Z,23.20
2022-10-18T02:18:40.879Z,23.24
2022-10-18T02:21:10.966Z,22.12
2022-10-18T02:23:38.805Z,23.11
2022-10-18T02:26:06.360Z,23.06
2022-10-18T02:28:33.327Z,22.95
2022-10-18T02:31:11.029Z,20.62
2022-10-18T02:33:53.811Z,23.14
2022-10-18T02:36:35.985Z,22.60
2022-10-18T02:39:07.587Z,23.18
2022-10-18T02:41:34.809Z,23.36
2022-10-18T02:44:01.615Z,23.26
2022-10-18T02:46:28.675Z,23.20
2022-10-18T02:48:56.474Z,23.05
2022-10-18T02:51:23.481Z,23.33
2022-10-18T02:53:49.856Z,23.42
2022-10-18T02:56:16.770Z,23.13
2022-10-18T02:58:43.239Z,22.99
2022-10-18T03:01:11.336Z,22.93
2022-10-18T03:03:38.334Z,23.03
2022-10-18T03:06:05.406Z,23.21
2022-10-18T03:08:32.090Z,23.02
2022-10-18T03:10:58.894Z,22.92
2022-10-18T03:13:26.996Z,23.28
2022-10-18T03:15:53.621Z,23.12
2022-10-18T03:18:20.155Z,23.15
2022-10-18T03:20:46.873Z,23.27
2022-10-18T03:23:14.587Z,23.11
2022-10-18T03:25:44.198Z,23.20
2022-10-18T03:28:12.723Z,23.21
2022-10-18T03:30:39.515Z,22.69
2022-10-18T03:33:06.824Z,22.93
2022-10-18T03:35:33.290Z,21.89
2022-10-18T03:38:00.571Z,23.01
2022-10-18T03:40:27.626Z,22.92
2022-10-18T03:45:21.097Z,23.12
2022-10-18T03:47:47.909Z,22.99
2022-10-18T03:50:14.842Z,22.98
2022-10-18T03:52:41.735Z,22.93
2022-10-18T03:55:08.576Z,22.83
2022-10-18T03:57:35.299Z,22.87
2022-10-18T04:00:01.944Z,22.60
2022-10-18T04:02:28.547Z,22.83
2022-10-18T04:04:55.275Z,22.76
2022-10-18T04:07:21.850Z,22.55
2022-10-18T04:09:59.156Z,22.55
2022-10-18T04:12:25.804Z,22.64
2022-10-18T04:14:55.734Z,22.35
2022-10-18T04:17:22.898Z,22.67
2022-10-18T04:19:50.129Z,22.63
2022-10-18T04:22:17.713Z,22.68
2022-10-18T04:24:44.733Z,22.34
2022-10-18T04:27:11.508Z,22.26
2022-10-18T04:29:38.350Z,21.90
2022-10-18T04:32:20.521Z,22.61
2022-10-18T04:34:47.440Z,22.77
2022-10-18T04:37:14.733Z,22.32
2022-10-18T04:39:49.822Z,22.44
2022-10-18T04:42:19.519Z,22.64
2022-10-18T04:44:46.483Z,22.56
2022-10-18T04:47:13.203Z,22.40
2022-10-18T04:49:47.074Z,22.69
2022-10-18T04:52:13.530Z,22.69
2022-10-18T04:54:39.967Z,22.49
2022-10-18T04:57:07.919Z,22.73
2022-10-18T04:59:34.815Z,22.55
2022-10-18T05:02:01.785Z,22.89
2022-10-18T05:04:28.707Z,22.47
2022-10-18T05:06:55.573Z,22.71
2022-10-18T05:09:24.644Z,22.82
2022-10-18T05:11:51.770Z,22.79
2022-10-18T05:14:18.516Z,22.84
2022-10-18T05:16:45.257Z,22.76
2022-10-18T05:19:12.375Z,22.66
2022-10-18T05:21:39.550Z,22.71
2022-10-18T05:24:06.627Z,22.68
2022-10-18T05:26:33.741Z,22.80
2022-10-18T05:29:00.584Z,22.48
2022-10-18T05:31:27.493Z,22.63
2022-10-18T05:33:54.675Z,22.59
2022-10-18T05:36:21.309Z,22.41
2022-10-18T05:38:48.445Z,22.33
2022-10-18T05:41:15.776Z,22.65
2022-10-18T05:43:42.661Z,22.53
2022-10-18T05:46:15.460Z,22.30
2022-10-18T05:48:44.518Z,21.45
2022-10-18T05:51:11.761Z,21.11
2022-10-18T05:53:38.621Z,22.12
2022-10-18T05:56:07.198Z,22.42
2022-10-18T05:58:34.541Z,21.31
2022-10-18T06:01:03.283Z,22.44
2022-10-18T06:03:31.265Z,21.80
2022-10-18T06:06:07.801Z,21.95
2022-10-18T06:08:35.313Z,22.19
2022-10-18T06:11:16.499Z,22.67
2022-10-18T06:13:47.271Z,22.27
2022-10-18T06:16:15.856Z,22.33
2022-10-18T06:18:43.043Z,22.53
2022-10-18T06:21:10.263Z,22.86
2022-10-18T06:23:39.113Z,22.51
2022-10-18T06:26:08.341Z,22.54
2022-10-18T06:28:36.621Z,21.59
2022-10-18T06:31:04.905Z,21.56
2022-10-18T06:33:32.786Z,21.50
2022-10-18T06:36:22.003Z,21.87
2022-10-18T06:38:48.960Z,22.00
2022-10-18T06:41:16.223Z,22.10
2022-10-18T06:43:43.893Z,21.32
2022-10-18T06:46:10.884Z,21.64
2022-10-18T06:48:39.217Z,21.10
2022-10-18T06:51:08.059Z,21.66
2022-10-18T06:53:43.814Z,22.03
2022-10-18T06:56:15.546Z,22.36
2022-10-18T06:58:43.900Z,22.42
2022-10-18T07:01:13.138Z,21.21
2022-10-18T07:03:41.750Z,21.92
2022-10-18T07:06:11.068Z,21.55
2022-10-18T07:08:38.329Z,22.27
2022-10-18T07:11:06.410Z,20.82
2022-10-18T07:13:34.008Z,22.12
2022-10-18T07:16:01.345Z,21.96
2022-10-18T07:18:28.945Z,21.30
2022-10-18T07:20:57.353Z,21.69
2022-10-18T07:23:24.440Z,21.67
2022-10-18T07:25:52.354Z,21.18
2022-10-18T07:28:19.204Z,21.33
2022-10-18T07:30:47.062Z,21.87
2022-10-18T07:33:14.043Z,22.12
2022-10-18T07:35:40.949Z,21.92
2022-10-18T07:38:07.942Z,22.27
2022-10-18T07:40:34.948Z,22.21
2022-10-18T07:43:04.600Z,22.27
2022-10-18T07:45:32.296Z,22.45
2022-10-18T07:47:59.174Z,22.48
2022-10-18T07:50:26.020Z,22.47
2022-10-18T07:52:52.944Z,21.87
2022-10-18T07:55:20.051Z,22.01
2022-10-18T07:57:47.322Z,22.13
2022-10-18T08:00:14.204Z,21.36
2022-10-18T08:02:41.441Z,21.98
2022-10-18T08:05:08.796Z,22.04
2022-10-18T08:07:36.165Z,22.14
2022-10-18T08:10:03.714Z,21.63
2022-10-18T08:12:30.567Z,22.08
2022-10-18T08:14:57.512Z,21.98
2022-10-18T08:17:24.693Z,21.72
2022-10-18T08:20:04.735Z,22.30
2022-10-18T08:22:38.029Z,22.64
2022-10-18T08:25:05.213Z,22.10
2022-10-18T08:27:34.167Z,21.98
2022-10-18T08:30:02.481Z,22.06
2022-10-18T08:32:29.964Z,22.37
2022-10-18T08:34:57.153Z,22.13
2022-10-18T08:37:23.851Z,22.03
2022-10-18T08:39:50.445Z,21.46
2022-10-18T08:42:43.967Z,21.87
2022-10-18T08:45:29.785Z,22.20
2022-10-18T08:48:01.572Z,22.56
2022-10-18T08:50:35.641Z,22.18
2022-10-18T08:53:17.763Z,22.71
2022-10-18T08:55:54.935Z,22.76
2022-10-18T08:58:21.623Z,21.64
2022-10-18T09:01:23.903Z,22.62
2022-10-18T09:04:11.631Z,22.16
2022-10-18T09:06:47.356Z,22.23
2022-10-18T09:09:17.314Z,21.67
2022-10-18T09:12:07.236Z,21.13
2022-10-18T09:14:56.988Z,22.81
2022-10-18T09:17:41.905Z,22.71
2022-10-18T09:20:42.634Z,22.98
2022-10-18T09:23:22.404Z,22.66
2022-10-18T09:26:00.920Z,22.53
2022-10-18T09:28:30.778Z,23.03
2022-10-18T09:31:08.332Z,23.10
2022-10-18T09:33:41.203Z,22.66
2022-10-18T09:36:19.675Z,22.37
2022-10-18T09:39:02.268Z,23.74
2022-10-18T09:41:54.390Z,22.97
2022-10-18T09:44:30.560Z,21.37
2022-10-18T09:47:01.703Z,21.69
2022-10-18T09:49:42.364Z,21.99
2022-10-18T09:52:17.282Z,22.03
2022-10-18T09:54:50.029Z,22.59
2022-10-18T09:57:31.163Z,22.45
2022-10-18T09:59:58.100Z,23.02
2022-10-18T10:02:24.917Z,23.51
2022-10-18T10:04:54.041Z,22.80
2022-10-18T10:07:28.636Z,23.53
2022-10-18T10:10:04.370Z,22.83
2022-10-18T10:12:36.964Z,24.04
2022-10-18T10:15:22.591Z,23.62
2022-10-18T10:18:02.344Z,23.20
2022-10-18T10:20:35.202Z,22.60
2022-10-18T10:23:08.778Z,23.16
2022-10-18T10:25:38.626Z,23.73
2022-10-18T10:28:18.351Z,23.67
2022-10-18T10:30:44.898Z,23.57
2022-10-18T10:33:33.865Z,22.42
2022-10-18T10:36:02.726Z,23.19
2022-10-18T10:38:31.365Z,23.98
2022-10-18T10:40:59.329Z,23.16
2022-10-18T10:43:38.027Z,23.60
2022-10-18T10:46:13.166Z,24.71
2022-10-18T10:48:48.661Z,24.50
2022-10-18T10:51:37.853Z,23.98
2022-10-18T10:54:15.535Z,23.29
2022-10-18T10:57:00.167Z,23.22
2022-10-18T10:59:31.373Z,22.82
2022-10-18T11:02:31.853Z,23.24
2022-10-18T11:05:26.994Z,21.86
2022-10-18T11:07:59.480Z,23.79
2022-10-18T11:10:30.815Z,23.31
2022-10-18T11:13:23.833Z,23.18
2022-10-18T11:16:00.429Z,23.18
2022-10-18T11:18:36.371Z,21.94
2022-10-18T11:21:12.287Z,23.28
2022-10-18T11:23:41.587Z,22.83
2022-10-18T11:26:11.833Z,23.01
2022-10-18T11:29:10.728Z,23.65
2022-10-18T11:32:13.782Z,22.89
2022-10-18T11:34:52.610Z,23.11
2022-10-18T11:37:38.235Z,23.17
2022-10-18T11:40:24.725Z,23.39
2022-10-18T11:43:02.635Z,24.94
2022-10-18T11:45:48.513Z,23.31
2022-10-18T11:48:44.743Z,23.24
2022-10-18T11:51:38.772Z,22.07
2022-10-18T11:54:57.594Z,24.25
2022-10-18T11:57:39.890Z,23.77
2022-10-18T12:00:25.094Z,23.90
2022-10-18T12:03:13.668Z,22.33
2022-10-18T12:05:43.370Z,24.32
2022-10-18T12:08:16.077Z,24.06
2022-10-18T12:11:04.681Z,23.51
2022-10-18T12:13:47.916Z,24.20
2022-10-18T12:16:15.659Z,24.36
2022-10-18T12:19:01.184Z,23.36
2022-10-18T12:21:31.751Z,25.07
2022-10-18T12:24:11.055Z,25.08
2022-10-18T12:26:38.005Z,24.99
2022-10-18T12:29:29.062Z,25.49
2022-10-18T12:32:13.443Z,24.05
2022-10-18T12:34:54.310Z,24.37
2022-10-18T12:38:04.639Z,25.01
2022-10-18T12:40:43.987Z,25.45
2022-10-18T12:43:38.918Z,23.60
2022-10-18T12:46:13.075Z,23.75
2022-10-18T12:48:45.298Z,24.21
2022-10-18T12:51:20.963Z,23.30
2022-10-18T12:54:02.925Z,23.29
2022-10-18T12:56:29.416Z,22.61
2022-10-18T12:59:14.366Z,22.01
2022-10-18T13:01:53.334Z,21.64
2022-10-18T13:04:28.902Z,21.57
2022-10-18T13:06:58.505Z,21.97
2022-10-18T13:09:30.271Z,22.60
2022-10-18T13:12:09.148Z,22.73
2022-10-18T13:15:12.626Z,22.87
2022-10-18T13:17:51.376Z,22.18
2022-10-18T13:20:27.368Z,22.87
2022-10-18T13:23:04.060Z,21.94
2022-10-18T13:26:00.821Z,22.88
2022-10-18T13:28:49.366Z,22.47
2022-10-18T13:31:41.698Z,22.12
2022-10-18T13:34:34.827Z,22.75
2022-10-18T13:37:05.223Z,22.67
2022-10-18T13:39:32.861Z,23.04
2022-10-18T13:42:00.629Z,22.76
2022-10-18T13:44:37.729Z,23.21
2022-10-18T13:47:04.500Z,22.55
2022-10-18T13:49:40.522Z,23.41
2022-10-18T13:52:29.220Z,23.50
2022-10-18T13:55:22.941Z,23.10
2022-10-18T13:58:17.586Z,23.59
2022-10-18T14:00:50.102Z,22.90
2022-10-18T14:03:55.658Z,23.17
2022-10-18T14:06:22.420Z,22.76
2022-10-18T14:09:09.678Z,22.44
2022-10-18T14:12:07.796Z,22.31
2022-10-18T14:14:56.515Z,22.25
2022-10-18T14:17:22.819Z,21.74
2022-10-18T14:19:55.084Z,22.66
2022-10-18T14:22:40.924Z,22.08
2022-10-18T14:25:35.502Z,21.85
2022-10-18T14:28:13.481Z,20.21
2022-10-18T14:31:09.271Z,22.04
2022-10-18T14:33:43.911Z,21.89
2022-10-18T14:36:26.194Z,21.77
2022-10-18T14:38:56.363Z,21.74
2022-10-18T14:41:25.211Z,21.12
2022-10-18T14:44:12.349Z,21.28
2022-10-18T14:46:48.425Z,21.75
2022-10-18T14:49:17.979Z,21.57
2022-10-18T14:51:50.908Z,21.08
2022-10-18T14:54:31.945Z,20.70
2022-10-18T14:57:00.970Z,20.76
2022-10-18T14:59:37.549Z,20.74
2022-10-18T15:02:19.436Z,20.90
2022-10-18T15:04:47.277Z,20.59
2022-10-18T15:07:21.172Z,21.14
2022-10-18T15:09:49.115Z,21.25
2022-10-18T15:12:17.754Z,20.65
2022-10-18T15:14:45.787Z,20.75
2022-10-18T15:17:31.713Z,20.50
2022-10-18T15:20:06.203Z,21.37
2022-10-18T15:22:34.886Z,20.82
2022-10-18T15:25:31.571Z,20.87
2022-10-18T15:28:00.373Z,21.57
2022-10-18T15:30:41.176Z,20.66
2022-10-18T15:33:11.880Z,21.14
2022-10-18T15:35:39.983Z,20.50
2022-10-18T15:38:27.917Z,20.48
2022-10-18T15:40:55.150Z,20.64
2022-10-18T15:43:28.179Z,19.81
2022-10-18T15:46:06.592Z,20.27
2022-10-18T15:48:37.434Z,21.18
2022-10-18T15:51:07.443Z,20.70
2022-10-18T15:53:45.711Z,19.10
2022-10-18T15:56:31.701Z,20.31
2022-10-18T15:59:05.178Z,19.92
2022-10-18T16:01:46.289Z,19.98
2022-10-18T16:04:28.229Z,20.24
2022-10-18T16:06:56.282Z,20.04
2022-10-18T16:09:25.289Z,19.66
2022-10-18T16:11:56.935Z,19.95
2022-10-18T16:14:25.167Z,20.48
2022-10-18T16:16:55.772Z,19.96
2022-10-18T16:19:23.022Z,19.02
2022-10-18T16:21:51.899Z,19.69
2022-10-18T16:24:21.458Z,18.29
2022-10-18T16:26:48.686Z,19.72
2022-10-18T16:29:21.763Z,18.64
2022-10-18T16:31:50.820Z,18.88
2022-10-18T16:34:17.996Z,17.82
2022-10-18T16:36:44.769Z,18.21
2022-10-18T16:39:19.510Z,18.16
2022-10-18T16:41:46.979Z,19.23
2022-10-18T16:44:14.330Z,20.27
2022-10-18T16:46:46.587Z,19.96
2022-10-18T16:51:48.154Z,19.90
2022-10-18T16:54:14.822Z,19.85
2022-10-18T16:56:42.199Z,20.21
2022-10-18T16:59:22.084Z,19.77
2022-10-18T17:01:49.240Z,20.26
2022-10-18T17:04:17.996Z,20.35
2022-10-18T17:06:45.265Z,20.08
2022-10-18T17:09:15.090Z,20.36
2022-10-18T17:11:41.979Z,19.94
2022-10-18T17:14:15.287Z,20.55
2022-10-18T17:16:44.521Z,19.61
2022-10-18T17:19:14.854Z,20.09
2022-10-18T17:21:42.466Z,19.82
2022-10-18T17:24:09.262Z,20.19
2022-10-18T17:26:36.306Z,19.57
2022-10-18T17:29:10.240Z,19.71
2022-10-18T17:31:37.224Z,19.83
2022-10-18T17:34:05.607Z,19.88
2022-10-18T17:36:34.233Z,19.43
2022-10-18T17:39:01.220Z,20.30
2022-10-18T17:41:28.246Z,19.84
2022-10-18T17:43:58.228Z,20.10
2022-10-18T17:46:26.358Z,19.52
2022-10-18T17:48:54.105Z,19.19
2022-10-18T17:51:23.391Z,18.93
2022-10-18T17:53:50.762Z,19.13
2022-10-18T17:56:17.456Z,19.12
2022-10-18T17:58:44.510Z,19.12
2022-10-18T18:01:15.066Z,19.11
2022-10-18T18:03:42.014Z,19.20
2022-10-18T18:06:16.822Z,19.53
2022-10-18T18:08:43.810Z,19.68
2022-10-18T18:11:18.188Z,19.61
2022-10-18T18:13:45.809Z,19.58
2022-10-18T18:16:26.930Z,18.94
2022-10-18T18:18:56.065Z,19.15
2022-10-18T18:21:25.583Z,19.16
2022-10-18T18:23:52.381Z,19.73
2022-10-18T18:26:20.904Z,19.19
2022-10-18T18:28:48.960Z,18.55
2022-10-18T18:31:17.111Z,18.19
2022-10-18T18:33:45.004Z,18.72
2022-10-18T18:36:12.043Z,19.42
2022-10-18T18:38:44.130Z,18.89
2022-10-18T18:41:13.923Z,19.03
2022-10-18T18:43:55.784Z,19.86
2022-10-18T18:46:23.886Z,19.17
2022-10-18T18:48:52.018Z,19.60
2022-10-18T18:51:21.991Z,20.24
2022-10-18T18:53:49.116Z,19.67
2022-10-18T18:56:18.888Z,19.66
2022-10-18T18:58:49.115Z,19.60
2022-10-18T19:01:24.936Z,19.59
2022-10-18T19:03:53.352Z,18.89
2022-10-18T19:06:29.165Z,19.45
2022-10-18T19:09:01.473Z,19.42
2022-10-18T19:11:32.427Z,19.10
2022-10-18T19:14:03.625Z,19.38
2022-10-18T19:16:33.749Z,18.86
2022-10-18T19:19:07.022Z,19.42
2022-10-18T19:21:42.301Z,18.98
2022-10-18T19:24:10.892Z,18.81
2022-10-18T19:26:44.991Z,18.00
2022-10-18T19:29:22.310Z,18.35
2022-10-18T19:31:51.056Z,19.25
2022-10-18T19:34:20.340Z,17.27
2022-10-18T19:36:48.101Z,19.50
2022-10-18T19:39:32.846Z,19.77
2022-10-18T19:42:03.193Z,19.69
2022-10-18T19:44:32.360Z,19.77
2022-10-18T19:46:59.839Z,19.42
2022-10-18T19:49:28.936Z,20.06
2022-10-18T19:51:57.534Z,20.20
2022-10-18T19:54:26.764Z,20.07
2022-10-18T19:56:54.084Z,20.58
2022-10-18T19:59:22.619Z,20.19
2022-10-18T20:01:49.331Z,20.25
2022-10-18T20:04:16.727Z,20.13
2022-10-18T20:06:45.858Z,19.88
2022-10-18T20:09:17.674Z,20.05
2022-10-18T20:11:47.252Z,19.75
2022-10-18T20:14:14.711Z,19.86
2022-10-18T20:16:41.531Z,19.45
2022-10-18T20:19:08.143Z,19.19
2022-10-18T20:21:39.389Z,19.10
2022-10-18T20:24:09.196Z,18.07
2022-10-18T20:26:36.296Z,19.45
2022-10-18T20:29:04.283Z,17.68
2022-10-18T20:31:35.576Z,19.17
2022-10-18T20:34:06.926Z,18.92
2022-10-18T20:36:34.860Z,18.76
2022-10-18T20:39:02.458Z,18.71
2022-10-18T20:41:34.884Z,18.30
2022-10-18T20:44:22.947Z,18.52
2022-10-18T20:46:49.760Z,18.65
2022-10-18T20:49:17.099Z,18.75
2022-10-18T20:51:45.827Z,19.13
2022-10-18T20:54:12.685Z,18.59
2022-10-18T20:56:48.834Z,19.13
2022-10-18T20:59:15.655Z,19.33
2022-10-18T21:01:42.946Z,19.10
2022-10-18T21:04:10.406Z,18.76
2022-10-18T21:06:42.731Z,19.02
2022-10-18T21:09:13.950Z,18.90
2022-10-18T21:11:45.098Z,18.71
2022-10-18T21:14:18.951Z,17.80
2022-10-18T21:16:47.143Z,18.46
2022-10-18T21:19:17.351Z,18.41
2022-10-18T21:21:49.841Z,17.37
2022-10-18T21:24:19.050Z,18.80
2022-10-18T21:26:47.928Z,18.02
2022-10-18T21:29:21.638Z,18.92
2022-10-18T21:31:52.764Z,18.44
2022-10-18T21:34:22.331Z,18.13
2022-10-18T21:36:52.972Z,17.28
2022-10-18T21:41:51.726Z,18.22
2022-10-18T21:44:18.732Z,17.89
2022-10-18T21:46:52.084Z,17.78
2022-10-18T21:49:20.935Z,18.02
2022-10-18T21:51:47.456Z,17.67
2022-10-18T21:54:16.646Z,17.55
2022-10-18T21:56:44.208Z,16.10
2022-10-18T21:59:13.605Z,17.37
2022-10-18T22:01:40.909Z,17.58
2022-10-18T22:04:25.989Z,16.75
2022-10-18T22:06:52.781Z,17.64
2022-10-18T22:09:21.726Z,17.60
2022-10-18T22:11:53.468Z,17.16
2022-10-18T22:14:21.455Z,16.90
2022-10-18T22:16:49.110Z,17.11
2022-10-18T22:19:16.393Z,17.38
2022-10-18T22:21:43.256Z,17.06
2022-10-18T22:24:10.515Z,16.84
2022-10-18T22:26:41.077Z,17.34
2022-10-18T22:29:18.568Z,18.00
2022-10-18T22:31:52.133Z,18.11
2022-10-18T22:34:22.047Z,17.74
2022-10-18T22:36:51.434Z,17.77
2022-10-18T22:39:18.873Z,18.09
2022-10-18T22:41:47.020Z,18.07
2022-10-18T22:44:15.460Z,18.14
2022-10-18T22:46:43.906Z,18.59
2022-10-18T22:49:19.199Z,18.03
2022-10-18T22:51:46.503Z,18.08
2022-10-18T22:54:13.636Z,17.92
2022-10-18T22:56:57.601Z,18.01
2022-10-18T22:59:24.770Z,17.97
2022-10-18T23:01:51.849Z,18.29
2022-10-18T23:04:18.724Z,18.14
2022-10-18T23:06:45.719Z,18.30
2022-10-18T23:09:14.078Z,17.76
2022-10-18T23:11:40.829Z,17.84
2022-10-18T23:14:10.895Z,18.09
2022-10-18T23:16:38.113Z,18.18
2022-10-18T23:19:05.268Z,17.65
2022-10-18T23:21:34.301Z,15.94
2022-10-18T23:24:01.710Z,17.92
2022-10-18T23:26:28.685Z,17.43
2022-10-18T23:28:55.968Z,17.67
2022-10-18T23:31:32.479Z,17.51
2022-10-18T23:34:02.513Z,17.36
2022-10-18T23:36:32.965Z,17.52
2022-10-18T23:38:59.820Z,17.31
2022-10-18T23:41:26.679Z,17.58
2022-10-18T23:43:59.532Z,17.32
2022-10-18T23:46:26.185Z,17.77
2022-10-18T23:49:12.059Z,17.47
2022-10-18T23:51:38.796Z,17.75
2022-10-18T23:54:06.135Z,18.18
2022-10-18T23:56:33.114Z,18.16
2022-10-18T23:58:59.978Z,17.92
